Lanzarote, Spain
Current Conditions -  °F | °C
As of 7:00 PM on Sunday 23 Nov 2014 (Local Time) from GCRR Reporting Station
Scattered Clouds Scattered Clouds  
Wind Chill: 68°   Ceiling: Unl
Heat Index: 68°   Visibility: 6mi
Dew Point: 63°   Wind: 9mph
Humidity: 83%   Direction: 20°NNE
Pressure: 29.97"   Gusts: NA
Location:  28.95°N, 13.6°W
Report Text: GCRR 231900Z 02008KT 9999 FEW025TCU SCT045 20/17 Q1015
Loading
Personal Weather Stations






























Interactive Weather Map New forecast layout! Learn more

10-Day Weather Forecast

Advertisements
Track Severe Weather on mobile